createdAt,value
2018-12-14T00:09:39.398Z,97442.52
2018-12-14T00:19:58.820Z,97442.77
2018-12-14T00:30:18.633Z,97442.98
2018-12-14T00:40:38.449Z,97444.90
2018-12-14T00:50:58.803Z,97438.83
2018-12-14T01:01:19.170Z,97440.34
2018-12-14T01:11:38.935Z,97442.48
2018-12-14T01:21:58.769Z,97443.67
2018-12-14T01:32:18.613Z,97456.41
2018-12-14T01:42:38.610Z,97450.83
2018-12-14T01:52:58.249Z,97453.37
2018-12-14T02:03:17.669Z,97443.53
2018-12-14T02:13:38.136Z,97447.87
2018-12-14T02:23:57.838Z,97443.80
2018-12-14T02:34:17.969Z,97436.88
2018-12-14T02:44:37.992Z,97428.67
2018-12-14T02:54:58.038Z,97419.56
2018-12-14T03:05:17.965Z,97415.66
2018-12-14T03:15:38.105Z,97407.94
2018-12-14T03:25:57.671Z,97406.03
2018-12-14T03:36:16.845Z,97400.73
2018-12-14T03:46:36.763Z,97398.67
2018-12-14T03:56:55.900Z,97402.61
2018-12-14T04:07:15.701Z,97399.87
2018-12-14T04:17:35.020Z,97400.20
2018-12-14T04:27:54.530Z,97407.92
2018-12-14T04:38:14.046Z,97419.24
2018-12-14T04:48:33.777Z,97431.09
2018-12-14T04:58:52.993Z,97434.66
2018-12-14T05:09:13.156Z,97449.50
2018-12-14T05:19:32.741Z,97444.83
2018-12-14T05:29:52.464Z,97454.03
2018-12-14T05:40:11.756Z,97462.05
2018-12-14T05:50:31.932Z,97464.30
2018-12-14T06:00:51.759Z,97471.03
2018-12-14T06:11:11.601Z,97477.80
2018-12-14T06:21:31.344Z,97482.32
2018-12-14T06:31:51.095Z,97483.66
2018-12-14T06:42:20.971Z,97486.61
2018-12-14T06:52:40.307Z,97492.13
2018-12-14T07:03:00.535Z,97489.89
2018-12-14T07:13:22.032Z,97495.73
2018-12-14T07:23:39.485Z,97510.50
2018-12-14T07:33:59.367Z,97511.42
2018-12-14T07:44:18.674Z,97531.97
2018-12-14T07:54:38.577Z,97525.78
2018-12-14T08:04:57.976Z,97533.47
2018-12-14T08:15:17.708Z,97535.98
2018-12-14T08:25:37.215Z,97543.86
2018-12-14T08:35:56.472Z,97560.19
2018-12-14T08:46:15.735Z,97564.00
2018-12-14T08:56:34.913Z,97571.35
2018-12-14T09:07:02.840Z,97583.92
2018-12-14T09:17:22.688Z,97585.94
2018-12-14T09:27:42.333Z,97574.98
2018-12-14T09:38:04.590Z,97577.51
2018-12-14T09:48:23.627Z,97572.64
2018-12-14T09:58:43.878Z,97572.64
2018-12-14T10:09:03.801Z,97578.32
2018-12-14T10:19:23.577Z,97576.81
2018-12-14T10:29:43.061Z,97576.81
2018-12-14T10:40:02.779Z,97579.25
2018-12-14T10:50:22.057Z,97558.20
2018-12-14T11:00:59.838Z,97540.42
2018-12-14T11:11:19.351Z,97557.52
2018-12-14T11:21:41.102Z,97558.81
2018-12-14T11:32:00.363Z,97559.92
2018-12-14T11:42:21.482Z,97559.92
2018-12-14T11:52:41.380Z,97566.91
2018-12-14T12:03:01.905Z,97559.34
2018-12-14T12:13:21.672Z,97559.63
2018-12-14T12:23:41.072Z,97539.47
2018-12-14T12:34:00.700Z,97547.51
2018-12-14T12:44:20.613Z,97552.06
2018-12-14T12:54:40.286Z,97544.30
2018-12-14T13:05:01.078Z,97546.41
2018-12-14T13:15:20.473Z,97551.28
2018-12-14T13:25:40.182Z,97551.28
2018-12-14T13:35:59.968Z,97553.64
2018-12-14T13:46:20.338Z,97559.52
2018-12-14T13:56:40.869Z,97573.28
2018-12-14T14:07:01.088Z,97574.64
2018-12-14T14:17:20.954Z,97590.08
2018-12-14T14:27:40.730Z,97598.27
2018-12-14T14:37:59.971Z,97612.06
2018-12-14T14:48:19.778Z,97624.63
2018-12-14T14:58:40.989Z,97631.78
2018-12-14T15:09:00.412Z,97639.66
2018-12-14T15:19:19.943Z,97637.83
2018-12-14T15:29:39.481Z,97655.02
2018-12-14T15:39:59.071Z,97651.59
2018-12-14T15:50:20.759Z,97669.69
2018-12-14T16:00:42.233Z,97664.09
2018-12-14T16:11:01.231Z,97675.95
2018-12-14T16:21:21.739Z,97679.80
2018-12-14T16:31:42.498Z,97684.64
2018-12-14T16:42:02.863Z,97682.55
2018-12-14T16:52:23.434Z,97691.45
2018-12-14T17:02:43.348Z,97698.10
2018-12-14T17:13:04.586Z,97698.55
2018-12-14T17:23:25.919Z,97699.95
2018-12-14T17:33:45.643Z,97701.34
2018-12-14T17:44:06.592Z,97718.14
2018-12-14T17:54:26.179Z,97711.27
2018-12-14T18:04:46.777Z,97716.19
2018-12-14T18:15:07.751Z,97724.77
2018-12-14T18:25:27.225Z,97728.13
2018-12-14T18:35:47.383Z,97732.34
2018-12-14T18:46:07.959Z,97752.70
2018-12-14T18:56:29.386Z,97759.23
2018-12-14T19:06:50.557Z,97764.20
2018-12-14T19:17:12.385Z,97766.18
2018-12-14T19:27:32.670Z,97768.30
2018-12-14T19:37:52.956Z,97777.22
2018-12-14T19:48:13.610Z,97777.22
2018-12-14T19:58:35.199Z,97779.02
2018-12-14T20:08:56.299Z,97781.66
2018-12-14T20:19:17.905Z,97789.89
2018-12-14T20:29:38.849Z,97807.77
2018-12-14T20:39:58.698Z,97804.14
2018-12-14T20:50:19.484Z,97802.86
2018-12-14T21:00:39.386Z,97806.71
2018-12-14T21:11:00.132Z,97806.94
2018-12-14T21:21:19.775Z,97796.31
2018-12-14T21:31:41.957Z,97801.13
2018-12-14T21:42:01.613Z,97791.28
2018-12-14T21:52:21.348Z,97802.45
2018-12-14T22:02:41.623Z,97817.02
2018-12-14T22:13:01.293Z,97817.02
2018-12-14T22:23:21.148Z,97824.84
2018-12-14T22:33:41.371Z,97820.30
2018-12-14T22:44:02.249Z,97815.75
2018-12-14T22:54:23.293Z,97823.67
2018-12-14T23:04:42.424Z,97823.03
2018-12-14T23:15:02.688Z,97801.70
2018-12-14T23:25:22.296Z,97801.41
2018-12-14T23:35:41.875Z,97794.39
2018-12-14T23:46:02.483Z,97790.42
2018-12-14T23:56:22.242Z,97798.37
